Mount Sterling, Ohio
Current Conditions -  °F | °C
As of 4:35 AM on Monday 20 Oct 2014 (Local Time) from KTZR Reporting Station
Haze Haze  
Wind Chill: 44°   Ceiling: Unl
Heat Index: 44°   Visibility: 5mi
Dew Point: 40°   Wind: 3mph
Humidity: 88%   Direction: 200°SSW
Pressure: 30.02"   Gusts: NA
Location:  39.72°N, 83.27°W
Report Text: KTZR 200835Z AUTO 20003KT 5SM BR CLR 07/05 A3002 RMK AO2 T00650046
Loading
Personal Weather Stations






























Interactive Weather Map
Tropical Storm Tracking
New forecast layout! Learn more

10-Day Weather Forecast

Advertisements
Track Severe Weather on mobile